Time;durP1;ratioP1;P1;durP2;ratioP2;P2;SDS_P1;SDS_P2;PMS_P1;PMS_P2;Temp;Humidity;BMP_temperature;BMP_pressure;BME280_temperature;BME280_humidity;BME280_pressure;Samples;Min_cycle;Max_cycle;Signal;HPM_P1;HPM_P2
2022/01/23 00:01:48;;;;;;;14.70;6.65;;;5.60;99.90;;;;;;5073027;28;20049;-79
2022/01/23 00:04:14;;;;;;;12.73;6.22;;;5.60;99.90;;;;;;5065258;28;20144;-80
2022/01/23 00:06:40;;;;;;;14.20;6.45;;;5.60;99.90;;;;;;5082329;28;20124;-78
2022/01/23 00:09:05;;;;;;;15.27;6.80;;;5.60;99.90;;;;;;5032450;28;20052;-78
2022/01/23 00:11:35;;;;;;;19.77;6.53;;;5.60;99.90;;;;;;5018020;28;20041;-78
2022/01/23 00:19:14;;;;;;;14.63;5.85;;;5.60;99.90;;;;;;5036727;28;20102;-79
2022/01/23 00:21:41;;;;;;;16.52;5.30;;;5.60;99.90;;;;;;5067405;28;20057;-78
2022/01/23 00:32:04;;;;;;;15.68;5.15;;;5.60;99.90;;;;;;5062939;28;20131;-84
2022/01/23 00:34:29;;;;;;;15.95;5.32;;;5.60;99.90;;;;;;5066065;28;20127;-79
2022/01/23 00:36:55;;;;;;;12.23;5.05;;;5.60;99.90;;;;;;5053808;28;20053;-78
2022/01/23 00:39:21;;;;;;;15.55;5.50;;;5.60;99.90;;;;;;5049040;28;20048;-79
2022/01/23 00:41:46;;;;;;;17.60;6.35;;;5.60;99.90;;;;;;5057518;28;20428;-79
2022/01/23 00:44:12;;;;;;;17.17;5.53;;;5.60;99.90;;;;;;5050786;28;20045;-80
2022/01/23 00:46:40;;;;;;;12.27;5.72;;;5.60;99.90;;;;;;5051396;28;20052;-80
2022/01/23 00:51:34;;;;;;;9.30;5.30;;;5.50;99.90;;;;;;5048509;28;20143;-80
2022/01/23 00:54:03;;;;;;;12.45;5.00;;;5.60;99.90;;;;;;5036307;28;20061;-79
2022/01/23 00:56:29;;;;;;;14.73;5.95;;;5.50;99.90;;;;;;5056220;28;20057;-81
2022/01/23 00:58:55;;;;;;;17.73;5.75;;;5.60;99.90;;;;;;5053955;28;21896;-79
2022/01/23 01:01:21;;;;;;;14.68;6.00;;;5.50;99.90;;;;;;5054882;28;20072;-80
2022/01/23 01:03:47;;;;;;;15.27;5.40;;;5.50;99.90;;;;;;5062078;28;20048;-79
2022/01/23 01:06:14;;;;;;;11.43;5.60;;;5.50;99.90;;;;;;5070265;28;20045;-80
2022/01/23 01:08:41;;;;;;;10.90;5.20;;;5.60;99.90;;;;;;5071164;28;20071;-80
2022/01/23 01:14:26;;;;;;;15.20;5.97;;;5.50;99.90;;;;;;5050120;28;20049;-80
2022/01/23 01:35:17;;;;;;;19.63;6.53;;;5.60;99.90;;;;;;5051448;28;20138;-79
2022/01/23 01:37:42;;;;;;;16.10;6.43;;;5.60;99.90;;;;;;5053754;28;20083;-79
2022/01/23 01:40:08;;;;;;;15.93;6.97;;;5.50;99.90;;;;;;5021827;28;20122;-79
2022/01/23 01:42:34;;;;;;;21.05;7.63;;;5.60;99.90;;;;;;5058699;28;20045;-80
2022/01/23 01:45:00;;;;;;;17.25;6.25;;;5.60;99.90;;;;;;5057399;28;20051;-80
2022/01/23 01:47:25;;;;;;;20.23;6.80;;;5.60;99.90;;;;;;5055065;28;20539;-80
2022/01/23 01:49:51;;;;;;;17.60;6.45;;;5.60;99.90;;;;;;5029211;28;20045;-80
2022/01/23 01:52:17;;;;;;;17.95;5.75;;;5.60;99.90;;;;;;5067430;28;20052;-80
2022/01/23 01:54:43;;;;;;;18.85;6.40;;;5.60;99.90;;;;;;5052358;28;20466;-79
2022/01/23 01:57:10;;;;;;;19.90;6.78;;;5.60;99.90;;;;;;5054521;28;20518;-80
2022/01/23 02:10:05;;;;;;;14.43;6.75;;;5.60;99.90;;;;;;5057537;28;20103;-79
2022/01/23 02:13:02;;;;;;;15.23;5.70;;;5.60;99.90;;;;;;5072119;28;20041;-80
2022/01/23 02:15:44;;;;;;;14.88;6.68;;;5.60;99.90;;;;;;5057113;28;20053;-80
2022/01/23 02:50:48;;;;;;;16.90;7.18;;;5.60;99.90;;;;;;5050794;28;20509;-79
2022/01/23 02:55:47;;;;;;;16.60;6.38;;;5.60;99.90;;;;;;5067597;28;20490;-79
2022/01/23 02:58:17;;;;;;;18.20;6.30;;;5.60;99.90;;;;;;5053351;28;20041;-79
2022/01/23 03:00:49;;;;;;;15.40;5.93;;;5.70;99.90;;;;;;5078840;28;20094;-79
2022/01/23 03:03:22;;;;;;;17.98;6.35;;;5.60;99.90;;;;;;5043256;28;20409;-79
2022/01/23 03:06:12;;;;;;;15.35;6.70;;;5.60;99.90;;;;;;5071503;28;20121;-79
2022/01/23 03:27:38;;;;;;;16.20;6.40;;;5.60;99.90;;;;;;5051550;28;20564;-79
2022/01/23 03:32:51;;;;;;;18.15;6.28;;;5.60;99.90;;;;;;5039216;28;20049;-80
2022/01/23 03:35:18;;;;;;;15.95;6.80;;;5.60;99.90;;;;;;5065598;28;20048;-78
2022/01/23 03:37:44;;;;;;;17.75;6.82;;;5.60;99.90;;;;;;5083705;28;20051;-79
2022/01/23 03:40:11;;;;;;;14.32;6.60;;;5.60;99.90;;;;;;5052144;28;20132;-79
2022/01/23 03:42:41;;;;;;;20.55;7.60;;;5.60;99.90;;;;;;5056605;28;20045;-79
2022/01/23 03:50:04;;;;;;;20.85;8.75;;;5.60;99.90;;;;;;5070161;28;20060;-82
2022/01/23 03:52:29;;;;;;;19.23;7.97;;;5.60;99.90;;;;;;5066708;28;20555;-80
2022/01/23 03:54:55;;;;;;;17.45;7.00;;;5.50;99.90;;;;;;5069139;28;20083;-79
2022/01/23 03:57:21;;;;;;;21.00;8.15;;;5.60;99.90;;;;;;5047115;28;20052;-79
2022/01/23 03:59:47;;;;;;;17.95;7.20;;;5.60;99.90;;;;;;5050573;28;20055;-80
2022/01/23 04:02:14;;;;;;;19.60;8.43;;;5.60;99.90;;;;;;5038578;28;20049;-79
2022/01/23 04:04:41;;;;;;;15.95;7.82;;;5.60;99.90;;;;;;5052445;28;20045;-79
2022/01/23 04:07:12;;;;;;;14.20;7.70;;;5.50;99.90;;;;;;5060236;28;20045;-79
2022/01/23 04:09:39;;;;;;;16.15;7.78;;;5.60;99.90;;;;;;5047253;28;20036;-79
2022/01/23 04:12:07;;;;;;;16.17;7.55;;;5.50;99.90;;;;;;5053180;28;20048;-79
2022/01/23 04:14:35;;;;;;;17.75;7.30;;;5.60;99.90;;;;;;5053116;28;20786;-79
2022/01/23 04:33:40;;;;;;;15.18;7.03;;;5.50;99.90;;;;;;5058331;28;20060;-79
2022/01/23 05:00:34;;;;;;;22.13;7.55;;;5.50;99.90;;;;;;5009231;28;20084;-78
2022/01/23 05:05:47;;;;;;;16.58;7.07;;;5.50;99.90;;;;;;5008875;28;20515;-79
2022/01/23 05:08:17;;;;;;;16.10;7.70;;;5.50;99.90;;;;;;5023199;28;21478;-79
2022/01/23 05:10:43;;;;;;;14.85;6.53;;;5.60;99.90;;;;;;5002463;28;20132;-78
2022/01/23 05:13:09;;;;;;;15.20;7.03;;;5.50;99.90;;;;;;5012132;28;20567;-80
2022/01/23 05:15:35;;;;;;;15.38;7.05;;;5.50;99.90;;;;;;5012526;28;20053;-78
2022/01/23 05:18:01;;;;;;;16.63;7.70;;;5.50;99.90;;;;;;5011787;28;20053;-81
2022/01/23 05:20:28;;;;;;;15.10;6.78;;;5.50;99.90;;;;;;5012704;28;20048;-79
2022/01/23 05:23:00;;;;;;;15.02;6.93;;;5.60;99.90;;;;;;5011771;28;20058;-79
2022/01/23 05:25:29;;;;;;;17.92;7.65;;;5.50;99.90;;;;;;5013097;28;20058;-78
2022/01/23 05:27:55;;;;;;;18.70;7.72;;;5.50;99.90;;;;;;5020652;28;20049;-78
2022/01/23 05:30:22;;;;;;;18.35;7.28;;;5.50;99.90;;;;;;5012140;28;20114;-78
2022/01/23 05:32:48;;;;;;;20.10;8.18;;;5.60;99.90;;;;;;5009460;28;20504;-79
2022/01/23 05:35:21;;;;;;;18.70;7.50;;;5.50;99.90;;;;;;5008838;28;20120;-79
2022/01/23 05:37:47;;;;;;;19.23;8.05;;;5.60;99.90;;;;;;5012753;28;20052;-78
2022/01/23 05:40:16;;;;;;;15.88;6.78;;;5.60;99.90;;;;;;5009324;28;20476;-78
2022/01/23 05:42:42;;;;;;;21.52;7.97;;;5.60;99.90;;;;;;5017607;28;20056;-83
2022/01/23 05:45:09;;;;;;;17.73;7.53;;;5.60;99.90;;;;;;5014289;28;20057;-78
2022/01/23 05:47:36;;;;;;;15.93;7.68;;;5.60;99.90;;;;;;5018315;28;20041;-79
2022/01/23 05:50:03;;;;;;;16.70;7.57;;;5.60;99.90;;;;;;5032151;28;20050;-79
2022/01/23 05:52:31;;;;;;;20.80;8.55;;;5.50;99.90;;;;;;4996972;28;20062;-79
2022/01/23 05:54:57;;;;;;;14.57;7.10;;;5.50;99.90;;;;;;4982824;28;20049;-78
2022/01/23 05:57:23;;;;;;;16.83;7.68;;;5.50;99.90;;;;;;5014578;28;20160;-79
2022/01/23 05:59:48;;;;;;;16.90;8.65;;;5.50;99.90;;;;;;5025145;28;20136;-79
2022/01/23 06:02:14;;;;;;;15.55;7.93;;;5.60;99.90;;;;;;5011531;28;20572;-79
2022/01/23 06:04:40;;;;;;;25.27;9.52;;;5.60;99.90;;;;;;5033467;28;20050;-79
2022/01/23 06:07:05;;;;;;;17.02;8.43;;;5.60;99.90;;;;;;5013956;28;20073;-79
2022/01/23 06:09:31;;;;;;;20.77;8.27;;;5.60;99.90;;;;;;4990666;28;20045;-78
2022/01/23 06:11:57;;;;;;;14.82;7.97;;;5.50;99.90;;;;;;4999844;28;20068;-79
2022/01/23 06:14:22;;;;;;;18.67;8.43;;;5.50;99.90;;;;;;5010884;28;20545;-78
2022/01/23 06:16:49;;;;;;;18.80;8.23;;;5.60;99.90;;;;;;5030518;28;20049;-78
2022/01/23 06:19:14;;;;;;;18.05;8.18;;;5.60;99.90;;;;;;4999240;28;20045;-79
2022/01/23 06:21:40;;;;;;;15.65;7.40;;;5.50;99.90;;;;;;5015559;28;20041;-79
2022/01/23 06:24:09;;;;;;;16.35;7.57;;;5.50;99.90;;;;;;5014919;28;20049;-79
2022/01/23 06:26:47;;;;;;;20.95;8.93;;;5.50;99.90;;;;;;5016365;28;20053;-79
2022/01/23 06:29:15;;;;;;;15.93;8.45;;;5.50;99.90;;;;;;5007631;28;20132;-79
2022/01/23 06:31:42;;;;;;;18.42;8.55;;;5.50;99.90;;;;;;4998018;28;20046;-79
2022/01/23 06:34:09;;;;;;;15.80;7.68;;;5.50;99.90;;;;;;5004210;28;20084;-80
2022/01/23 06:36:37;;;;;;;21.08;8.38;;;5.50;99.90;;;;;;5028005;28;20129;-79
2022/01/23 06:39:05;;;;;;;14.02;7.60;;;5.50;99.90;;;;;;5006932;28;20068;-79
2022/01/23 06:41:31;;;;;;;15.93;8.73;;;5.50;99.90;;;;;;5014806;28;20479;-78
2022/01/23 06:43:57;;;;;;;19.55;7.93;;;5.50;99.90;;;;;;5014529;28;20045;-79
2022/01/23 06:46:24;;;;;;;21.58;8.57;;;5.50;99.90;;;;;;5015097;28;20045;-79
2022/01/23 06:48:50;;;;;;;16.35;7.28;;;5.50;99.90;;;;;;5011931;28;20591;-83
2022/01/23 06:51:16;;;;;;;20.48;8.38;;;5.50;99.90;;;;;;5014337;28;20053;-80
2022/01/23 06:53:41;;;;;;;20.65;8.25;;;5.50;99.90;;;;;;5010720;28;20054;-79
2022/01/23 06:56:07;;;;;;;18.55;6.95;;;5.50;99.90;;;;;;5035578;28;20537;-79
2022/01/23 06:58:33;;;;;;;17.35;7.30;;;5.50;99.90;;;;;;5062389;28;20051;-79
2022/01/23 07:00:59;;;;;;;15.77;8.10;;;5.50;99.90;;;;;;5055463;28;20045;-79
2022/01/23 07:03:25;;;;;;;17.98;7.57;;;5.50;99.90;;;;;;5056121;28;20047;-80
2022/01/23 07:05:50;;;;;;;17.88;8.45;;;5.40;99.90;;;;;;5070480;28;20041;-84
2022/01/23 07:08:16;;;;;;;17.98;7.82;;;5.40;99.90;;;;;;5064147;28;20051;-79
2022/01/23 07:10:42;;;;;;;14.57;7.63;;;5.50;99.90;;;;;;5052293;28;20052;-79
2022/01/23 07:13:07;;;;;;;17.67;7.53;;;5.40;99.90;;;;;;5064870;28;20057;-80
2022/01/23 07:15:33;;;;;;;18.55;8.10;;;5.40;99.90;;;;;;5059122;28;20059;-80
2022/01/23 07:17:59;;;;;;;13.93;7.45;;;5.50;99.90;;;;;;5052206;28;20106;-80
2022/01/23 07:20:25;;;;;;;14.15;7.68;;;5.50;99.90;;;;;;5064544;28;20041;-80
2022/01/23 07:22:50;;;;;;;15.73;7.55;;;5.50;99.90;;;;;;5054707;28;20037;-79
2022/01/23 07:25:16;;;;;;;15.75;7.25;;;5.50;99.90;;;;;;5031971;28;20057;-79
2022/01/23 07:27:50;;;;;;;16.45;6.85;;;5.40;99.90;;;;;;5039652;28;20046;-80
2022/01/23 07:32:51;;;;;;;16.77;7.45;;;5.50;99.90;;;;;;5051784;28;20383;-79
2022/01/23 07:35:16;;;;;;;13.65;6.85;;;5.40;99.90;;;;;;5060803;28;20044;-79
2022/01/23 07:37:42;;;;;;;17.08;8.07;;;5.50;99.90;;;;;;5050907;28;20049;-80
2022/01/23 07:40:09;;;;;;;15.98;7.88;;;5.50;99.90;;;;;;5067891;28;20052;-79
2022/01/23 07:42:35;;;;;;;16.40;7.00;;;5.50;99.90;;;;;;5056584;28;20401;-78
2022/01/23 07:45:02;;;;;;;18.95;7.53;;;5.50;99.90;;;;;;5051867;28;20148;-79
2022/01/23 07:47:28;;;;;;;19.75;7.97;;;5.50;99.90;;;;;;5085092;28;20040;-79
2022/01/23 07:49:54;;;;;;;16.05;7.47;;;5.50;99.90;;;;;;5062386;28;20528;-81
2022/01/23 07:52:19;;;;;;;14.27;7.28;;;5.50;99.90;;;;;;5059074;28;20037;-79
2022/01/23 07:54:45;;;;;;;16.15;7.28;;;5.50;99.90;;;;;;5062153;28;20552;-79
2022/01/23 07:57:11;;;;;;;15.77;7.55;;;5.50;99.90;;;;;;5065840;28;20048;-79
2022/01/23 07:59:37;;;;;;;16.38;7.70;;;5.50;99.90;;;;;;5058979;28;20132;-80
2022/01/23 08:02:03;;;;;;;11.73;7.38;;;5.50;99.90;;;;;;5085317;28;20048;-79
2022/01/23 08:04:29;;;;;;;14.93;7.70;;;5.50;99.90;;;;;;5052023;28;20569;-80
2022/01/23 08:07:20;;;;;;;13.68;7.13;;;5.50;99.90;;;;;;5037633;28;20143;-80
2022/01/23 08:09:46;;;;;;;20.15;7.25;;;5.50;99.90;;;;;;5061208;28;20052;-80
2022/01/23 08:12:12;;;;;;;14.73;7.45;;;5.50;99.90;;;;;;5051565;28;20053;-79
2022/01/23 08:14:37;;;;;;;13.45;7.38;;;5.60;99.90;;;;;;5055946;28;20508;-80
2022/01/23 08:17:03;;;;;;;16.05;7.38;;;5.60;99.90;;;;;;5054307;28;20051;-81
2022/01/23 08:19:29;;;;;;;11.10;6.88;;;5.60;99.90;;;;;;5053707;28;20076;-80
2022/01/23 08:21:55;;;;;;;15.43;7.93;;;5.60;99.90;;;;;;5061566;28;20084;-79
2022/01/23 08:24:20;;;;;;;14.65;7.72;;;5.60;99.90;;;;;;5050500;28;20053;-81
2022/01/23 08:26:46;;;;;;;15.48;7.55;;;5.70;99.90;;;;;;5070360;28;20048;-79
2022/01/23 08:29:12;;;;;;;16.55;8.82;;;5.70;99.90;;;;;;5044964;28;20041;-80
2022/01/23 08:31:37;;;;;;;13.98;7.63;;;5.70;99.90;;;;;;5048659;28;20052;-80
2022/01/23 08:34:03;;;;;;;12.98;6.95;;;5.80;99.90;;;;;;5054975;28;20041;-81
2022/01/23 08:36:31;;;;;;;16.08;8.20;;;5.80;99.90;;;;;;5048988;28;20048;-80
2022/01/23 08:38:59;;;;;;;15.35;8.38;;;5.80;99.90;;;;;;5053696;28;20700;-79
2022/01/23 08:43:51;;;;;;;14.73;8.15;;;5.90;99.90;;;;;;5050404;28;20049;-78
2022/01/23 08:46:18;;;;;;;13.85;7.00;;;5.90;99.90;;;;;;5054862;28;20045;-78
2022/01/23 08:48:44;;;;;;;14.77;6.53;;;5.90;99.90;;;;;;5048502;28;20136;-80
2022/01/23 08:51:10;;;;;;;16.80;8.07;;;6.00;99.90;;;;;;5050617;28;20418;-79
2022/01/23 08:53:37;;;;;;;14.95;7.72;;;6.00;99.90;;;;;;5060026;28;20486;-80
2022/01/23 08:56:03;;;;;;;12.57;7.00;;;6.00;99.90;;;;;;5056706;28;20081;-82
2022/01/23 08:58:28;;;;;;;15.63;7.30;;;6.00;99.90;;;;;;5048476;28;20135;-79
2022/01/23 09:00:54;;;;;;;13.32;6.93;;;6.00;99.90;;;;;;5071577;28;20180;-79
2022/01/23 09:03:20;;;;;;;13.73;6.97;;;6.00;99.90;;;;;;5012812;28;20483;-80
2022/01/23 09:05:46;;;;;;;12.73;6.68;;;6.00;99.90;;;;;;5050450;28;20446;-78
2022/01/23 09:08:11;;;;;;;12.40;6.35;;;6.10;99.90;;;;;;5071186;28;20041;-77
2022/01/23 09:10:52;;;;;;;12.93;6.95;;;6.10;99.90;;;;;;5072864;28;20071;-81
2022/01/23 09:14:20;;;;;;;10.75;5.72;;;6.10;99.90;;;;;;5049481;28;20482;-79
2022/01/23 09:16:14;;;;;;;11.73;6.35;;;6.10;99.90;;;;;;5044857;28;20049;-78
2022/01/23 09:18:39;;;;;;;9.75;6.35;;;6.10;99.90;;;;;;5053102;28;20064;-79
2022/01/23 09:21:05;;;;;;;9.52;6.30;;;6.10;99.90;;;;;;5052215;28;20079;-84
2022/01/23 09:23:31;;;;;;;10.80;5.90;;;6.10;99.90;;;;;;5051634;28;20386;-80
2022/01/23 09:26:00;;;;;;;10.73;5.97;;;6.10;99.90;;;;;;5053120;28;20134;-81
2022/01/23 09:28:32;;;;;;;11.68;6.07;;;6.20;99.90;;;;;;5051027;28;20049;-78
2022/01/23 09:30:59;;;;;;;12.70;6.35;;;6.20;99.90;;;;;;5047069;28;20132;-80
2022/01/23 09:33:24;;;;;;;12.77;6.20;;;6.30;99.90;;;;;;5033912;28;20060;-78
2022/01/23 09:35:50;;;;;;;12.50;7.43;;;6.30;99.90;;;;;;5056395;28;20037;-80
2022/01/23 09:38:16;;;;;;;10.85;6.28;;;6.30;99.90;;;;;;5052364;28;20099;-78
2022/01/23 09:40:43;;;;;;;10.23;5.95;;;6.30;99.90;;;;;;5052265;28;20044;-79
2022/01/23 09:43:16;;;;;;;10.50;6.60;;;6.30;99.90;;;;;;5052687;28;20041;-83
2022/01/23 09:45:47;;;;;;;11.20;6.07;;;6.40;99.90;;;;;;5067497;28;20118;-79
2022/01/23 09:48:15;;;;;;;11.93;6.00;;;6.40;99.90;;;;;;5048715;28;20498;-79
2022/01/23 09:50:44;;;;;;;8.73;5.78;;;6.50;99.90;;;;;;5041677;28;20490;-78
2022/01/23 09:53:11;;;;;;;14.40;5.72;;;6.50;99.90;;;;;;5032139;28;20379;-85
2022/01/23 09:55:39;;;;;;;9.55;5.47;;;6.60;99.90;;;;;;5066434;28;20146;-78
2022/01/23 09:58:05;;;;;;;8.77;5.05;;;6.70;99.90;;;;;;5052209;28;20059;-76
2022/01/23 10:00:33;;;;;;;8.70;5.43;;;6.70;99.90;;;;;;5049242;28;20067;-79
2022/01/23 10:02:59;;;;;;;10.18;5.20;;;6.70;99.90;;;;;;5046565;28;20052;-78
2022/01/23 10:05:26;;;;;;;9.77;5.18;;;6.80;99.90;;;;;;5045639;28;20102;-80
2022/01/23 10:07:53;;;;;;;9.43;5.05;;;6.80;99.90;;;;;;5047446;28;20050;-79
2022/01/23 10:10:24;;;;;;;7.95;3.78;;;6.90;99.90;;;;;;5032231;28;20049;-78
2022/01/23 10:13:00;;;;;;;5.80;4.43;;;6.80;99.90;;;;;;5032186;28;20483;-79
2022/01/23 10:15:29;;;;;;;7.57;3.90;;;6.90;99.90;;;;;;5031507;28;20084;-79
2022/01/23 10:17:55;;;;;;;7.00;4.93;;;6.90;99.90;;;;;;5032006;28;20494;-78
2022/01/23 10:20:21;;;;;;;6.88;4.57;;;7.00;99.90;;;;;;5031450;28;20046;-79
2022/01/23 10:22:50;;;;;;;10.52;5.60;;;7.00;99.90;;;;;;4999246;28;20053;-80
2022/01/23 10:25:19;;;;;;;9.90;5.75;;;7.10;99.90;;;;;;5068557;28;20057;-79
2022/01/23 10:27:54;;;;;;;7.10;4.22;;;7.20;99.90;;;;;;5050671;28;20053;-79
2022/01/23 10:30:23;;;;;;;7.05;4.28;;;7.20;99.90;;;;;;5051139;28;20096;-79
2022/01/23 10:33:00;;;;;;;8.75;4.70;;;7.30;99.90;;;;;;5052906;28;20095;-78
2022/01/23 10:35:26;;;;;;;9.02;4.78;;;7.30;99.90;;;;;;5051147;28;20049;-79
2022/01/23 10:37:53;;;;;;;6.65;4.00;;;7.20;99.90;;;;;;5051634;28;20045;-80
2022/01/23 10:40:25;;;;;;;6.97;3.92;;;7.20;99.90;;;;;;5052165;28;20088;-79
2022/01/23 10:46:38;;;;;;;4.93;3.60;;;7.30;99.90;;;;;;5051314;28;20091;-78
2022/01/23 10:48:41;;;;;;;6.60;3.57;;;7.40;99.90;;;;;;5050655;28;20056;-80
2022/01/23 10:51:16;;;;;;;4.35;2.90;;;7.40;99.90;;;;;;5059518;28;20044;-76
2022/01/23 10:54:05;;;;;;;3.97;2.40;;;7.30;99.90;;;;;;5033744;28;20123;-82
2022/01/23 10:56:53;;;;;;;6.38;3.15;;;7.40;99.90;;;;;;5041602;28;20128;-79
2022/01/23 10:59:19;;;;;;;6.40;3.17;;;7.40;99.90;;;;;;5045220;28;20091;-81
2022/01/23 11:02:08;;;;;;;7.18;4.43;;;7.50;99.90;;;;;;5070871;28;20080;-78
2022/01/23 11:04:56;;;;;;;10.82;4.97;;;7.60;99.90;;;;;;5043504;28;20060;-80
2022/01/23 11:07:24;;;;;;;8.25;4.20;;;7.70;99.90;;;;;;5045058;28;20040;-78
2022/01/23 11:09:56;;;;;;;5.07;2.13;;;7.70;99.90;;;;;;5036460;28;20115;-78
2022/01/23 11:12:43;;;;;;;6.22;2.88;;;7.70;99.90;;;;;;5063868;28;20041;-79
2022/01/23 11:17:59;;;;;;;11.73;5.30;;;7.70;99.90;;;;;;5046624;28;20065;-78
2022/01/23 11:20:32;;;;;;;7.32;4.68;;;7.60;99.90;;;;;;5042025;28;20050;-79
2022/01/23 11:23:10;;;;;;;3.00;2.10;;;7.60;99.90;;;;;;5048799;28;20128;-78
2022/01/23 11:25:37;;;;;;;2.20;1.40;;;7.50;99.90;;;;;;5047543;28;20053;-78
2022/01/23 11:28:04;;;;;;;2.25;1.88;;;7.50;99.90;;;;;;5026937;28;20045;-78
2022/01/23 11:30:44;;;;;;;2.70;2.30;;;7.50;99.90;;;;;;5050085;28;20080;-78
2022/01/23 11:33:13;;;;;;;1.55;0.70;;;7.60;99.90;;;;;;5043655;28;20053;-78
2022/01/23 11:35:39;;;;;;;2.55;0.95;;;7.50;99.90;;;;;;5053174;28;20049;-77
2022/01/23 11:38:11;;;;;;;0.52;0.50;;;7.60;99.90;;;;;;5046264;28;20091;-77
2022/01/23 11:55:36;;;;;;;1.50;0.93;;;7.90;99.90;;;;;;5045296;28;20052;-79
2022/01/23 11:58:04;;;;;;;2.38;0.90;;;8.00;99.90;;;;;;5075978;28;20065;-79
2022/01/23 12:00:33;;;;;;;2.28;1.00;;;8.10;99.90;;;;;;5070987;28;20435;-80
2022/01/23 12:03:19;;;;;;;1.02;0.80;;;8.10;99.90;;;;;;5040188;28;20052;-79
2022/01/23 12:05:50;;;;;;;1.35;0.80;;;8.00;99.90;;;;;;5078790;28;20255;-80
2022/01/23 12:08:21;;;;;;;2.03;0.70;;;8.00;99.90;;;;;;5062818;28;20048;-78
2022/01/23 12:11:17;;;;;;;1.92;0.88;;;8.00;99.90;;;;;;5029971;28;20040;-79
2022/01/23 12:16:26;;;;;;;1.25;0.85;;;7.90;99.90;;;;;;5045186;28;20072;-80
2022/01/23 12:19:16;;;;;;;1.90;1.10;;;7.80;99.90;;;;;;5045770;28;20033;-78
2022/01/23 12:21:42;;;;;;;1.85;1.10;;;7.70;99.90;;;;;;5026710;28;20225;-80
2022/01/23 12:24:09;;;;;;;5.00;1.60;;;7.70;99.90;;;;;;5028488;28;20446;-79
2022/01/23 12:26:35;;;;;;;2.53;1.30;;;7.60;99.90;;;;;;5058362;28;20067;-78
2022/01/23 12:29:12;;;;;;;3.47;1.42;;;7.70;99.90;;;;;;5053037;28;20057;-79
2022/01/23 12:31:38;;;;;;;2.75;1.73;;;7.70;99.90;;;;;;5022879;28;20124;-79
2022/01/23 12:34:04;;;;;;;3.67;1.55;;;7.70;99.90;;;;;;5038450;28;20046;-83
2022/01/23 12:36:33;;;;;;;2.58;1.23;;;7.60;99.90;;;;;;5050413;28;20139;-79
2022/01/23 12:39:07;;;;;;;2.72;1.00;;;7.60;99.90;;;;;;5063222;28;20060;-77
2022/01/23 12:41:37;;;;;;;2.88;1.33;;;7.60;99.90;;;;;;5046540;28;20049;-78
2022/01/23 12:44:21;;;;;;;1.95;1.17;;;7.40;99.90;;;;;;5049129;28;20095;-79
2022/01/23 12:46:52;;;;;;;2.63;1.52;;;7.50;99.90;;;;;;5040461;28;20059;-79
2022/01/23 12:49:24;;;;;;;1.77;1.17;;;7.60;99.90;;;;;;5051361;28;20045;-84
2022/01/23 12:52:10;;;;;;;1.75;1.10;;;7.60;99.90;;;;;;5054503;28;20048;-79
2022/01/23 12:54:50;;;;;;;2.03;1.35;;;7.70;99.90;;;;;;5042341;28;20102;-77
2022/01/23 12:57:40;;;;;;;2.75;1.60;;;7.70;99.90;;;;;;5059464;28;20057;-76
2022/01/23 13:00:24;;;;;;;2.95;1.35;;;7.70;99.90;;;;;;5071362;28;20423;-76
2022/01/23 13:02:52;;;;;;;4.60;1.52;;;7.70;99.90;;;;;;5041445;28;20047;-77
2022/01/23 13:05:18;;;;;;;2.22;1.88;;;7.70;99.90;;;;;;5053597;28;20141;-78
2022/01/23 13:08:07;;;;;;;2.15;1.35;;;7.80;99.90;;;;;;5039112;28;20147;-79
2022/01/23 13:10:54;;;;;;;2.53;1.50;;;7.80;99.90;;;;;;5044345;28;20127;-78
2022/01/23 13:16:22;;;;;;;4.72;2.08;;;7.70;99.90;;;;;;5018408;28;20053;-78
2022/01/23 13:26:30;;;;;;;4.03;2.08;;;7.60;99.90;;;;;;5057359;28;20136;-78
2022/01/23 13:30:35;;;;;;;5.57;2.08;;;7.60;99.90;;;;;;5039305;28;20045;-83
2022/01/23 13:33:08;;;;;;;5.13;2.97;;;7.60;99.90;;;;;;5057636;28;20057;-79
2022/01/23 13:35:39;;;;;;;3.83;2.50;;;7.60;99.90;;;;;;5038162;28;20080;-79
2022/01/23 13:38:10;;;;;;;4.15;2.92;;;7.50;99.90;;;;;;5029470;28;20087;-78
2022/01/23 13:40:40;;;;;;;4.40;2.03;;;7.50;99.90;;;;;;5056506;28;20139;-77
2022/01/23 14:02:46;;;;;;;2.30;1.50;;;7.50;99.90;;;;;;5052720;28;20509;-77
2022/01/23 14:05:28;;;;;;;4.15;1.30;;;7.50;99.90;;;;;;5045612;28;20040;-77
2022/01/23 14:07:56;;;;;;;2.50;0.90;;;7.40;99.90;;;;;;5050074;28;20041;-77
2022/01/23 14:10:35;;;;;;;3.53;0.82;;;7.40;99.90;;;;;;5048611;28;20040;-82
2022/01/23 14:13:16;;;;;;;1.13;0.80;;;7.40;99.90;;;;;;5055349;28;20048;-82
2022/01/23 14:15:44;;;;;;;2.22;1.60;;;7.40;99.90;;;;;;5049291;28;20498;-83
2022/01/23 14:18:13;;;;;;;3.92;1.27;;;7.40;99.90;;;;;;5049716;28;20052;-82
2022/01/23 14:20:42;;;;;;;3.15;1.63;;;7.40;99.90;;;;;;5076189;28;20049;-82
2022/01/23 14:23:12;;;;;;;2.75;1.60;;;7.40;99.90;;;;;;5070173;28;20095;-76
2022/01/23 14:25:45;;;;;;;4.03;1.63;;;7.40;99.90;;;;;;5051814;28;20045;-82
2022/01/23 14:28:15;;;;;;;4.22;2.17;;;7.30;99.90;;;;;;5046993;28;20472;-80
2022/01/23 14:31:00;;;;;;;5.05;3.05;;;7.30;99.90;;;;;;5049306;28;20114;-81
2022/01/23 14:33:34;;;;;;;5.35;2.78;;;7.30;99.90;;;;;;5061625;28;20049;-81
2022/01/23 14:36:13;;;;;;;4.10;2.03;;;7.30;99.90;;;;;;5074608;28;20048;-82
2022/01/23 14:38:39;;;;;;;2.90;2.53;;;7.30;99.90;;;;;;5046462;28;20049;-90
2022/01/23 14:41:09;;;;;;;2.50;1.30;;;7.30;99.90;;;;;;5025787;28;20045;-83
2022/01/23 14:43:41;;;;;;;3.53;1.70;;;7.30;99.90;;;;;;5049939;28;20399;-85
2022/01/23 14:46:08;;;;;;;3.00;2.17;;;7.30;99.90;;;;;;5045475;28;20490;-85
2022/01/23 14:48:44;;;;;;;3.90;2.40;;;7.30;99.90;;;;;;5027171;28;20645;-81
2022/01/23 14:51:11;;;;;;;5.50;2.17;;;7.20;99.90;;;;;;5073271;28;20057;-82
2022/01/23 14:53:39;;;;;;;2.88;1.70;;;7.20;99.90;;;;;;5026409;28;20045;-83
2022/01/23 14:56:09;;;;;;;4.32;3.60;;;7.20;99.90;;;;;;5042884;28;20060;-83
2022/01/23 14:58:36;;;;;;;6.82;3.70;;;7.10;99.90;;;;;;5021089;28;20053;-82
2022/01/23 15:01:04;;;;;;;3.78;1.83;;;7.10;99.90;;;;;;5081645;28;20044;-84
2022/01/23 15:03:31;;;;;;;5.50;2.70;;;7.10;99.90;;;;;;5040171;28;20045;-83
2022/01/23 15:05:59;;;;;;;3.15;1.85;;;7.10;99.90;;;;;;5049079;28;20135;-83
2022/01/23 15:08:25;;;;;;;2.65;2.10;;;7.10;99.90;;;;;;5020930;28;20037;-84
2022/01/23 15:10:54;;;;;;;4.05;2.50;;;7.10;99.90;;;;;;5052250;28;20061;-83
2022/01/23 15:13:22;;;;;;;4.47;2.50;;;7.00;99.90;;;;;;5053126;28;20049;-84
2022/01/23 15:15:49;;;;;;;3.33;2.00;;;7.00;99.90;;;;;;5053048;28;20052;-82
2022/01/23 15:18:15;;;;;;;3.10;1.95;;;7.00;99.90;;;;;;5052443;28;20064;-83
2022/01/23 15:20:41;;;;;;;4.20;2.30;;;7.00;99.90;;;;;;5059266;28;20120;-82
2022/01/23 15:23:08;;;;;;;3.15;1.70;;;6.90;99.90;;;;;;5068089;28;20123;-80
2022/01/23 15:25:34;;;;;;;5.95;3.28;;;6.90;99.90;;;;;;5035441;28;20081;-80
2022/01/23 15:28:00;;;;;;;6.07;3.70;;;6.90;99.90;;;;;;5037780;28;20088;-83
2022/01/23 15:30:27;;;;;;;6.50;4.10;;;6.90;99.90;;;;;;5052719;28;20052;-81
2022/01/23 15:32:54;;;;;;;7.25;4.35;;;6.80;99.90;;;;;;5056741;28;20048;-82
2022/01/23 15:35:24;;;;;;;7.38;4.00;;;6.90;99.90;;;;;;5072748;28;20055;-82
2022/01/23 15:37:50;;;;;;;15.55;10.88;;;6.80;99.90;;;;;;5069503;28;20524;-82
2022/01/23 15:40:18;;;;;;;6.47;4.50;;;6.80;99.90;;;;;;5061423;28;20044;-83
2022/01/23 15:42:45;;;;;;;6.78;4.20;;;6.80;99.90;;;;;;5053778;28;20496;-83
2022/01/23 15:45:12;;;;;;;6.57;3.92;;;6.70;99.90;;;;;;5035223;28;20095;-82
2022/01/23 15:47:39;;;;;;;4.50;2.60;;;6.70;99.90;;;;;;5049426;28;20038;-82
2022/01/23 15:50:07;;;;;;;3.72;2.53;;;6.70;99.90;;;;;;5046313;28;20123;-83
2022/01/23 15:52:33;;;;;;;4.60;2.00;;;6.70;99.90;;;;;;5025669;28;20056;-82
2022/01/23 15:54:59;;;;;;;9.48;5.57;;;6.70;99.90;;;;;;5057736;28;20491;-83
2022/01/23 15:57:25;;;;;;;12.63;6.72;;;6.70;99.90;;;;;;5051701;28;20064;-84
2022/01/23 15:59:51;;;;;;;11.70;7.55;;;6.60;99.90;;;;;;5036220;28;20091;-83
2022/01/23 16:02:17;;;;;;;15.10;10.75;;;6.60;99.90;;;;;;5034967;28;20128;-84
2022/01/23 16:04:43;;;;;;;8.63;5.78;;;6.60;99.90;;;;;;5018357;28;20041;-86
2022/01/23 16:07:16;;;;;;;9.27;6.25;;;6.60;99.90;;;;;;5034435;28;20045;-84
2022/01/23 16:09:51;;;;;;;8.18;6.40;;;6.60;99.90;;;;;;5021219;28;20037;-84
2022/01/23 16:12:18;;;;;;;8.60;5.03;;;6.60;99.90;;;;;;5033106;28;20044;-81
2022/01/23 16:14:44;;;;;;;7.60;5.30;;;6.60;99.90;;;;;;5047093;28;20338;-86
2022/01/23 16:17:10;;;;;;;7.07;3.90;;;6.60;99.90;;;;;;5034641;28;20075;-80
2022/01/23 16:19:36;;;;;;;5.97;3.63;;;6.50;99.90;;;;;;5037691;28;20502;-85
2022/01/23 16:22:02;;;;;;;6.57;4.15;;;6.50;99.90;;;;;;5017707;28;20053;-84
2022/01/23 16:24:28;;;;;;;7.18;4.57;;;6.50;99.90;;;;;;5033188;28;20048;-84
2022/01/23 16:26:56;;;;;;;9.27;4.07;;;6.50;99.90;;;;;;4999209;28;20056;-86
2022/01/23 16:29:24;;;;;;;6.80;4.80;;;6.50;99.90;;;;;;5018046;28;20048;-87
2022/01/23 16:31:52;;;;;;;9.93;6.80;;;6.50;99.90;;;;;;5033634;28;20045;-86
2022/01/23 16:34:18;;;;;;;17.83;9.27;;;6.40;99.90;;;;;;5043055;28;20052;-86